createdAt,value
2018-02-24T00:00:45.798Z,4.2
2018-02-24T00:01:48.154Z,4.1
2018-02-24T00:02:50.523Z,4.3
2018-02-24T00:03:52.886Z,4.2
2018-02-24T00:04:55.539Z,4.2
2018-02-24T00:05:57.910Z,4.2
2018-02-24T00:07:00.270Z,4.2
2018-02-24T00:08:02.649Z,4.2
2018-02-24T00:09:05.015Z,4.2
2018-02-24T00:10:07.381Z,4.2
2018-02-24T00:11:09.744Z,4.3
2018-02-24T00:12:12.103Z,4.3
2018-02-24T00:13:14.480Z,4.3
2018-02-24T00:14:16.850Z,4.2
2018-02-24T00:15:19.221Z,4.2
2018-02-24T00:16:21.600Z,4.2
2018-02-24T00:17:23.975Z,4.1
2018-02-24T00:18:26.330Z,4.3
2018-02-24T00:19:28.691Z,4.3
2018-02-24T00:20:31.069Z,4.3
2018-02-24T00:21:33.432Z,4.3
2018-02-24T00:22:35.796Z,4.2
2018-02-24T00:23:38.163Z,4.2
2018-02-24T00:24:40.525Z,4.2
2018-02-24T00:25:42.899Z,4.3
2018-02-24T00:26:45.553Z,4.3
2018-02-24T00:27:47.905Z,4.3
2018-02-24T00:28:50.277Z,4.2
2018-02-24T00:29:52.648Z,4.2
2018-02-24T00:30:55.014Z,4.2
2018-02-24T00:31:57.389Z,4.2
2018-02-24T00:32:59.751Z,4.2
2018-02-24T00:34:02.124Z,4.3
2018-02-24T00:35:04.786Z,4.3
2018-02-24T00:36:07.157Z,4.3
2018-02-24T00:37:09.518Z,4.3
2018-02-24T00:38:12.162Z,4.3
2018-02-24T00:39:14.526Z,4.2
2018-02-24T00:40:16.899Z,4.2
2018-02-24T00:41:19.260Z,4.2
2018-02-24T00:42:21.625Z,4.3
2018-02-24T00:43:23.998Z,4.3
2018-02-24T00:44:26.379Z,4.2
2018-02-24T00:45:28.744Z,4.3
2018-02-24T00:46:31.391Z,4.2
2018-02-24T00:47:33.759Z,4.2
2018-02-24T00:48:36.118Z,4.2
2018-02-24T00:49:38.487Z,4.3
2018-02-24T00:50:40.862Z,4.4
2018-02-24T00:51:43.504Z,4.3
2018-02-24T00:52:45.880Z,4.2
2018-02-24T00:53:48.249Z,4.2
2018-02-24T00:54:50.624Z,4.2
2018-02-24T00:55:52.997Z,4.2
2018-02-24T00:56:55.362Z,4.1
2018-02-24T00:57:57.724Z,4.2
2018-02-24T00:59:00.103Z,4.2
2018-02-24T01:00:02.465Z,4.3
2018-02-24T01:01:05.108Z,4.3
2018-02-24T01:02:07.483Z,4.3
2018-02-24T01:03:09.848Z,4.2
2018-02-24T01:04:12.223Z,4.2
2018-02-24T01:05:14.596Z,4.3
2018-02-24T01:06:16.958Z,4.2
2018-02-24T01:07:19.330Z,4.3
2018-02-24T01:08:21.697Z,4.3
2018-02-24T01:09:24.071Z,4.3
2018-02-24T01:10:26.439Z,4.2
2018-02-24T01:11:28.814Z,4.2
2018-02-24T01:12:31.190Z,4.3
2018-02-24T01:13:33.831Z,4.2
2018-02-24T01:14:36.198Z,4.4
2018-02-24T01:15:38.567Z,4.3
2018-02-24T01:16:40.929Z,4.4
2018-02-24T01:17:43.293Z,4.2
2018-02-24T01:18:45.654Z,4.2
2018-02-24T01:19:48.309Z,4.3
2018-02-24T01:20:50.679Z,4.4
2018-02-24T01:21:53.357Z,4.4
2018-02-24T01:22:55.720Z,4.3
2018-02-24T01:23:58.091Z,4.2
2018-02-24T01:25:00.472Z,4.3
2018-02-24T01:26:03.121Z,4.2
2018-02-24T01:27:05.490Z,4.3
2018-02-24T01:28:08.133Z,4.2
2018-02-24T01:29:10.512Z,4.3
2018-02-24T01:30:12.869Z,4.3
2018-02-24T01:31:15.242Z,4.3
2018-02-24T01:32:17.603Z,4.3
2018-02-24T01:33:20.549Z,4.3
2018-02-24T01:34:22.936Z,4.4
2018-02-24T01:35:25.298Z,4.2
2018-02-24T01:36:27.669Z,4.3
2018-02-24T01:37:30.034Z,4.2
2018-02-24T01:38:32.707Z,4.3
2018-02-24T01:39:35.074Z,4.4
2018-02-24T01:40:37.449Z,4.3
2018-02-24T01:41:39.805Z,4.4
2018-02-24T01:42:42.176Z,4.3
2018-02-24T01:43:44.544Z,4.3
2018-02-24T01:44:47.193Z,4.3
2018-02-24T01:45:49.554Z,4.3
2018-02-24T01:46:52.210Z,4.3
2018-02-24T01:47:54.574Z,4.4
2018-02-24T01:48:56.936Z,4.4
2018-02-24T01:49:59.314Z,4.3
2018-02-24T01:51:01.682Z,4.2
2018-02-24T01:52:04.057Z,4.3
2018-02-24T01:53:06.422Z,4.3
2018-02-24T01:54:08.786Z,4.2
2018-02-24T01:55:11.150Z,4.3
2018-02-24T01:56:13.534Z,4.4
2018-02-24T01:57:15.892Z,4.3
2018-02-24T01:58:18.276Z,4.3
2018-02-24T01:59:20.625Z,4.3
2018-02-24T02:00:22.996Z,4.3
2018-02-24T02:01:25.359Z,4.2
2018-02-24T02:02:27.720Z,4.4
2018-02-24T02:03:30.091Z,4.3
2018-02-24T02:04:32.733Z,4.3
2018-02-24T02:05:35.095Z,4.4
2018-02-24T02:06:37.471Z,4.3
2018-02-24T02:07:40.117Z,4.3
2018-02-24T02:08:42.491Z,4.3
2018-02-24T02:09:44.855Z,4.3
2018-02-24T02:10:47.224Z,4.4
2018-02-24T02:11:49.595Z,4.3
2018-02-24T02:12:51.953Z,4.3
2018-02-24T02:13:54.314Z,4.3
2018-02-24T02:14:56.688Z,4.3
2018-02-24T02:15:59.053Z,4.3
2018-02-24T02:17:01.429Z,4.3
2018-02-24T02:18:03.806Z,4.3
2018-02-24T02:19:06.476Z,4.3
2018-02-24T02:20:08.848Z,4.3
2018-02-24T02:21:11.220Z,4.4
2018-02-24T02:22:13.567Z,4.3
2018-02-24T02:23:15.940Z,4.3
2018-02-24T02:24:18.315Z,4.3
2018-02-24T02:25:20.683Z,4.3
2018-02-24T02:26:23.091Z,4.3
2018-02-24T02:27:25.456Z,4.4
2018-02-24T02:28:27.820Z,4.4
2018-02-24T02:29:30.188Z,4.3
2018-02-24T02:30:32.556Z,4.3
2018-02-24T02:31:34.927Z,4.3
2018-02-24T02:32:37.301Z,4.3
2018-02-24T02:33:39.683Z,4.4
2018-02-24T02:34:42.049Z,4.3
2018-02-24T02:35:44.710Z,4.4
2018-02-24T02:36:47.074Z,4.3
2018-02-24T02:37:49.438Z,4.3
2018-02-24T02:38:52.379Z,4.3
2018-02-24T02:39:54.747Z,4.3
2018-02-24T02:40:57.108Z,4.3
2018-02-24T02:41:59.483Z,4.3
2018-02-24T02:43:01.858Z,4.4
2018-02-24T02:44:04.231Z,4.4
2018-02-24T02:45:06.880Z,4.4
2018-02-24T02:46:09.255Z,4.3
2018-02-24T02:47:11.624Z,4.3
2018-02-24T02:48:13.993Z,4.3
2018-02-24T02:49:16.357Z,4.3
2018-02-24T02:50:18.728Z,4.4
2018-02-24T02:51:21.092Z,4.4
2018-02-24T02:52:23.470Z,4.3
2018-02-24T02:53:26.107Z,4.3
2018-02-24T02:54:28.477Z,4.3
2018-02-24T02:55:31.135Z,4.3
2018-02-24T02:56:33.774Z,4.3
2018-02-24T02:57:36.162Z,4.3
2018-02-24T02:58:38.522Z,4.4
2018-02-24T02:59:40.884Z,4.4
2018-02-24T03:00:43.254Z,4.4
2018-02-24T03:01:45.633Z,4.4
2018-02-24T03:02:48.002Z,4.4
2018-02-24T03:03:50.386Z,4.3
2018-02-24T03:04:52.743Z,4.3
2018-02-24T03:05:55.105Z,4.3
2018-02-24T03:06:57.769Z,4.4
2018-02-24T03:08:00.134Z,4.5
2018-02-24T03:09:02.490Z,4.4
2018-02-24T03:10:04.874Z,4.4
2018-02-24T03:11:07.511Z,4.4
2018-02-24T03:12:09.896Z,4.3
2018-02-24T03:13:12.274Z,4.3
2018-02-24T03:14:14.631Z,4.3
2018-02-24T03:15:17.292Z,4.3
2018-02-24T03:16:19.652Z,4.4
2018-02-24T03:17:22.037Z,4.4
2018-02-24T03:18:24.411Z,4.4
2018-02-24T03:19:26.774Z,4.3
2018-02-24T03:20:29.141Z,4.3
2018-02-24T03:21:31.510Z,4.3
2018-02-24T03:22:33.885Z,4.3
2018-02-24T03:23:36.255Z,4.4
2018-02-24T03:24:38.627Z,4.4
2018-02-24T03:25:41.003Z,4.4
2018-02-24T03:26:43.656Z,4.4
2018-02-24T03:27:46.025Z,4.3
2018-02-24T03:28:48.399Z,4.3
2018-02-24T03:29:51.058Z,4.3
2018-02-24T03:30:53.432Z,4.4
2018-02-24T03:31:55.793Z,4.4
2018-02-24T03:32:58.158Z,4.4
2018-02-24T03:34:00.524Z,4.4
2018-02-24T03:35:03.168Z,4.3
2018-02-24T03:36:05.820Z,4.3
2018-02-24T03:37:08.188Z,4.3
2018-02-24T03:38:10.545Z,4.3
2018-02-24T03:39:12.919Z,4.3
2018-02-24T03:40:15.300Z,4.4
2018-02-24T03:41:17.663Z,4.4
2018-02-24T03:42:20.031Z,4.3
2018-02-24T03:43:22.404Z,4.4
2018-02-24T03:44:24.776Z,4.3
2018-02-24T03:45:27.131Z,4.3
2018-02-24T03:46:29.784Z,4.3
2018-02-24T03:47:32.160Z,4.4
2018-02-24T03:48:34.522Z,4.4
2018-02-24T03:49:36.894Z,4.4
2018-02-24T03:50:39.266Z,4.4
2018-02-24T03:51:41.632Z,4.3
2018-02-24T03:52:44.013Z,4.4
2018-02-24T03:53:46.387Z,4.3
2018-02-24T03:54:48.747Z,4.4
2018-02-24T03:55:51.413Z,4.4
2018-02-24T03:56:53.781Z,4.5
2018-02-24T03:57:56.154Z,4.4
2018-02-24T03:58:58.520Z,4.3
2018-02-24T04:00:00.887Z,4.3
2018-02-24T04:01:03.253Z,4.3
2018-02-24T04:02:05.630Z,4.4
2018-02-24T04:03:08.555Z,4.5
2018-02-24T04:04:10.929Z,4.4
2018-02-24T04:05:13.295Z,4.4
2018-02-24T04:06:15.676Z,4.3
2018-02-24T04:07:18.044Z,4.3
2018-02-24T04:08:20.416Z,4.4
2018-02-24T04:09:22.787Z,4.3
2018-02-24T04:10:25.152Z,4.4
2018-02-24T04:11:27.535Z,4.4
2018-02-24T04:12:29.893Z,4.4
2018-02-24T04:13:32.550Z,4.4
2018-02-24T04:14:35.493Z,4.4
2018-02-24T04:15:37.860Z,4.4
2018-02-24T04:16:40.231Z,4.3
2018-02-24T04:17:42.605Z,4.4
2018-02-24T04:18:45.246Z,4.4
2018-02-24T04:19:47.906Z,4.4
2018-02-24T04:20:50.277Z,4.4
2018-02-24T04:21:52.645Z,4.4
2018-02-24T04:22:55.294Z,4.4
2018-02-24T04:23:57.661Z,4.4
2018-02-24T04:25:00.024Z,4.4
2018-02-24T04:26:02.679Z,4.3
2018-02-24T04:27:05.054Z,4.4
2018-02-24T04:28:07.412Z,4.4
2018-02-24T04:29:09.775Z,4.4
2018-02-24T04:30:12.157Z,4.4
2018-02-24T04:31:14.520Z,4.4
2018-02-24T04:32:16.883Z,4.4
2018-02-24T04:33:19.256Z,4.4
2018-02-24T04:34:21.623Z,4.4
2018-02-24T04:35:23.997Z,4.4
2018-02-24T04:36:26.372Z,4.4
2018-02-24T04:37:28.724Z,4.4
2018-02-24T04:38:31.101Z,4.4
2018-02-24T04:39:34.030Z,4.4
2018-02-24T04:40:36.403Z,4.4
2018-02-24T04:41:39.058Z,4.4
2018-02-24T04:42:41.437Z,4.4
2018-02-24T04:43:43.793Z,4.4
2018-02-24T04:44:46.162Z,4.4
2018-02-24T04:45:48.535Z,4.6
2018-02-24T04:46:50.902Z,4.4
2018-02-24T04:47:53.277Z,4.4
2018-02-24T04:48:55.652Z,4.4
2018-02-24T04:49:58.298Z,4.4
2018-02-24T04:51:00.680Z,4.4
2018-02-24T04:52:03.329Z,4.4
2018-02-24T04:53:05.698Z,4.4
2018-02-24T04:54:08.061Z,4.4
2018-02-24T04:55:10.432Z,4.4
2018-02-24T04:56:12.798Z,4.4
2018-02-24T04:57:15.448Z,4.4
2018-02-24T04:58:17.809Z,4.3
2018-02-24T04:59:20.476Z,4.4
2018-02-24T05:00:22.835Z,4.4
2018-02-24T05:01:25.207Z,4.3
2018-02-24T05:02:27.570Z,4.4
2018-02-24T05:03:29.948Z,4.4
2018-02-24T05:04:32.311Z,4.5
2018-02-24T05:05:34.685Z,4.4
2018-02-24T05:06:37.048Z,4.4
2018-02-24T05:07:39.422Z,4.3
2018-02-24T05:08:41.789Z,4.3
2018-02-24T05:09:44.160Z,4.4
2018-02-24T05:10:46.532Z,4.5
2018-02-24T05:11:48.910Z,4.4
2018-02-24T05:12:51.271Z,4.4
2018-02-24T05:13:53.642Z,4.3
2018-02-24T05:14:56.016Z,4.4
2018-02-24T05:15:58.374Z,4.4
2018-02-24T05:17:00.747Z,4.4
2018-02-24T05:18:03.103Z,4.4
2018-02-24T05:19:05.479Z,4.4
2018-02-24T05:20:07.854Z,4.3
2018-02-24T05:21:10.508Z,4.4
2018-02-24T05:22:12.868Z,4.4
2018-02-24T05:23:15.241Z,4.3
2018-02-24T05:24:17.893Z,4.4
2018-02-24T05:25:20.256Z,4.4
2018-02-24T05:26:22.645Z,4.4
2018-02-24T05:27:25.302Z,4.4
2018-02-24T05:28:27.673Z,4.4
2018-02-24T05:29:30.051Z,4.4
2018-02-24T05:30:32.424Z,4.3
2018-02-24T05:31:35.070Z,4.3
2018-02-24T05:32:37.443Z,4.4
2018-02-24T05:33:39.814Z,4.4
2018-02-24T05:34:42.467Z,4.4
2018-02-24T05:35:44.848Z,4.5
2018-02-24T05:36:47.498Z,4.3
2018-02-24T05:37:49.879Z,4.3
2018-02-24T05:38:52.530Z,4.3
2018-02-24T05:39:54.890Z,4.4
2018-02-24T05:40:57.258Z,4.4
2018-02-24T05:41:59.631Z,4.4
2018-02-24T05:43:02.292Z,4.4
2018-02-24T05:44:04.930Z,4.4
2018-02-24T05:45:07.297Z,4.4
2018-02-24T05:46:09.943Z,4.3
2018-02-24T05:47:12.310Z,4.3
2018-02-24T05:48:14.973Z,4.3
2018-02-24T05:49:17.334Z,4.3
2018-02-24T05:50:19.704Z,4.3
2018-02-24T05:51:22.083Z,4.4
2018-02-24T05:52:24.445Z,4.4
2018-02-24T05:53:26.813Z,4.4
2018-02-24T05:54:29.176Z,4.3
2018-02-24T05:55:31.549Z,4.4
2018-02-24T05:56:33.914Z,4.3
2018-02-24T05:57:36.315Z,4.4
2018-02-24T05:58:38.650Z,4.4
2018-02-24T05:59:41.298Z,4.4
2018-02-24T06:00:43.686Z,4.4
2018-02-24T06:01:46.040Z,4.4
2018-02-24T06:02:48.415Z,4.3
2018-02-24T06:03:50.780Z,4.3
2018-02-24T06:04:53.157Z,4.3
2018-02-24T06:05:55.527Z,4.4
2018-02-24T06:06:58.178Z,4.4
2018-02-24T06:08:00.534Z,4.3
2018-02-24T06:09:02.906Z,4.4
2018-02-24T06:10:05.273Z,4.3
2018-02-24T06:11:08.217Z,4.4
2018-02-24T06:12:10.875Z,4.3
2018-02-24T06:13:13.248Z,4.3
2018-02-24T06:14:15.616Z,4.3
2018-02-24T06:15:18.275Z,4.4
2018-02-24T06:16:20.926Z,4.4
2018-02-24T06:17:23.572Z,4.4
2018-02-24T06:18:25.950Z,4.4
2018-02-24T06:19:28.308Z,4.4
2018-02-24T06:20:30.675Z,4.4
2018-02-24T06:21:33.045Z,4.3
2018-02-24T06:22:35.697Z,4.3
2018-02-24T06:23:38.058Z,4.3
2018-02-24T06:24:40.434Z,4.3
2018-02-24T06:25:42.795Z,4.4
2018-02-24T06:26:45.150Z,4.4
2018-02-24T06:27:47.525Z,4.3
2018-02-24T06:28:49.889Z,4.4
2018-02-24T06:29:52.259Z,4.3
2018-02-24T06:30:54.627Z,4.3
2018-02-24T06:31:56.990Z,4.4
2018-02-24T06:32:59.365Z,4.4
2018-02-24T06:34:01.739Z,4.4
2018-02-24T06:35:04.106Z,4.3
2018-02-24T06:36:06.473Z,4.3
2018-02-24T06:37:08.839Z,4.3
2018-02-24T06:38:11.205Z,4.3
2018-02-24T06:39:13.567Z,4.4
2018-02-24T06:40:15.923Z,4.4
2018-02-24T06:41:18.304Z,4.3
2018-02-24T06:42:20.669Z,4.4
2018-02-24T06:43:23.036Z,4.3
2018-02-24T06:44:25.417Z,4.3
2018-02-24T06:45:27.781Z,4.4
2018-02-24T06:46:30.157Z,4.4
2018-02-24T06:47:32.530Z,4.4
2018-02-24T06:48:34.886Z,4.4
2018-02-24T06:49:37.254Z,4.3
2018-02-24T06:50:39.627Z,4.3
2018-02-24T06:51:41.991Z,4.3
2018-02-24T06:52:44.364Z,4.3
2018-02-24T06:53:46.732Z,4.3
2018-02-24T06:54:49.374Z,4.4
2018-02-24T06:55:52.022Z,4.3
2018-02-24T06:56:54.724Z,4.3
2018-02-24T06:57:57.379Z,4.3
2018-02-24T06:58:59.750Z,4.3
2018-02-24T07:00:02.132Z,4.3
2018-02-24T07:01:04.494Z,4.3
2018-02-24T07:02:06.865Z,4.3
2018-02-24T07:03:09.228Z,4.4
2018-02-24T07:04:11.600Z,4.4
2018-02-24T07:05:13.965Z,4.3
2018-02-24T07:06:16.330Z,4.3
2018-02-24T07:07:18.697Z,4.3
2018-02-24T07:08:21.071Z,4.3
2018-02-24T07:09:24.006Z,4.3
2018-02-24T07:10:26.372Z,4.3
2018-02-24T07:11:28.746Z,4.3
2018-02-24T07:12:31.098Z,4.3
2018-02-24T07:13:33.471Z,4.3
2018-02-24T07:14:35.857Z,4.3
2018-02-24T07:15:38.510Z,4.3
2018-02-24T07:16:40.880Z,4.3
2018-02-24T07:17:43.245Z,4.4
2018-02-24T07:18:45.610Z,4.3
2018-02-24T07:19:47.979Z,4.3
2018-02-24T07:20:50.340Z,4.3
2018-02-24T07:21:52.702Z,4.3
2018-02-24T07:22:55.073Z,4.3
2018-02-24T07:23:57.446Z,4.3
2018-02-24T07:24:59.812Z,4.4
2018-02-24T07:26:02.212Z,4.4
2018-02-24T07:27:04.552Z,4.4
2018-02-24T07:28:06.927Z,4.3
2018-02-24T07:29:09.593Z,4.3
2018-02-24T07:30:11.961Z,4.3
2018-02-24T07:31:14.332Z,4.3
2018-02-24T07:32:16.703Z,4.4
2018-02-24T07:33:19.061Z,4.4
2018-02-24T07:34:21.433Z,4.4
2018-02-24T07:35:23.795Z,4.3
2018-02-24T07:36:26.448Z,4.3
2018-02-24T07:37:28.807Z,4.3
2018-02-24T07:38:31.191Z,4.3
2018-02-24T07:39:33.553Z,4.4
2018-02-24T07:40:35.916Z,4.4
2018-02-24T07:41:38.290Z,4.4
2018-02-24T07:42:40.656Z,4.4
2018-02-24T07:43:43.027Z,4.4
2018-02-24T07:44:45.400Z,4.3
2018-02-24T07:45:47.760Z,4.3
2018-02-24T07:46:50.160Z,4.6
2018-02-24T07:47:52.495Z,4.4
2018-02-24T07:48:54.871Z,4.3
2018-02-24T07:49:57.238Z,4.3
2018-02-24T07:50:59.615Z,4.3
2018-02-24T07:52:01.981Z,4.4
2018-02-24T07:53:04.639Z,4.4
2018-02-24T07:54:07.007Z,4.4
2018-02-24T07:55:09.687Z,4.4
2018-02-24T07:56:12.054Z,4.4
2018-02-24T07:57:14.430Z,4.4
2018-02-24T07:58:16.793Z,4.4
2018-02-24T07:59:19.159Z,4.4
2018-02-24T08:00:21.529Z,4.4
2018-02-24T08:01:24.184Z,4.5
2018-02-24T08:02:27.120Z,4.5
2018-02-24T08:03:29.493Z,4.5
2018-02-24T08:04:32.134Z,4.5
2018-02-24T08:05:34.516Z,4.5
2018-02-24T08:06:36.899Z,4.5
2018-02-24T08:07:39.266Z,4.5
2018-02-24T08:08:41.635Z,4.5
2018-02-24T08:09:44.007Z,4.6
2018-02-24T08:10:46.379Z,4.5
2018-02-24T08:11:49.035Z,4.6
2018-02-24T08:12:51.407Z,4.6
2018-02-24T08:13:54.073Z,4.6
2018-02-24T08:14:56.445Z,4.5
2018-02-24T08:15:59.110Z,4.5
2018-02-24T08:17:01.488Z,4.5
2018-02-24T08:18:03.866Z,4.6
2018-02-24T08:19:06.522Z,4.7
2018-02-24T08:20:09.188Z,4.7
2018-02-24T08:21:11.553Z,4.7
2018-02-24T08:22:13.940Z,4.6
2018-02-24T08:23:16.300Z,4.6
2018-02-24T08:24:18.679Z,4.6
2018-02-24T08:25:21.348Z,4.6
2018-02-24T08:26:23.746Z,4.8
2018-02-24T08:27:26.119Z,4.7
2018-02-24T08:28:28.498Z,4.7
2018-02-24T08:29:30.861Z,4.7
2018-02-24T08:30:33.252Z,4.7
2018-02-24T08:31:35.623Z,4.7
2018-02-24T08:32:37.996Z,4.8
2018-02-24T08:33:40.370Z,4.8
2018-02-24T08:34:42.752Z,4.8
2018-02-24T08:35:45.132Z,4.7
2018-02-24T08:36:47.497Z,4.7
2018-02-24T08:37:49.887Z,4.9
2018-02-24T08:38:52.257Z,4.8
2018-02-24T08:39:54.634Z,4.8
2018-02-24T08:40:57.007Z,4.8
2018-02-24T08:41:59.373Z,4.9
2018-02-24T08:43:01.748Z,4.7
2018-02-24T08:44:04.400Z,4.8
2018-02-24T08:45:06.769Z,4.9
2018-02-24T08:46:09.150Z,4.8
2018-02-24T08:47:11.532Z,4.8
2018-02-24T08:48:13.914Z,4.8
2018-02-24T08:49:16.571Z,4.8
2018-02-24T08:50:19.234Z,4.8
2018-02-24T08:51:21.599Z,4.8
2018-02-24T08:52:23.977Z,4.8
2018-02-24T08:53:26.361Z,4.8
2018-02-24T08:54:29.070Z,4.8
2018-02-24T08:55:31.442Z,4.8
2018-02-24T08:56:33.830Z,4.8
2018-02-24T08:57:36.211Z,4.8
2018-02-24T08:58:38.854Z,4.7
2018-02-24T08:59:41.233Z,4.8
2018-02-24T09:00:43.914Z,4.9
2018-02-24T09:01:46.294Z,4.9
2018-02-24T09:02:48.677Z,4.8
2018-02-24T09:03:51.039Z,4.8
2018-02-24T09:04:53.425Z,4.8
2018-02-24T09:05:55.797Z,4.8
2018-02-24T09:06:58.174Z,4.8
2018-02-24T09:08:00.543Z,4.8
2018-02-24T09:09:03.203Z,4.7
2018-02-24T09:10:05.578Z,4.8
2018-02-24T09:11:08.237Z,4.7
2018-02-24T09:12:10.616Z,4.8
2018-02-24T09:13:13.002Z,4.7
2018-02-24T09:14:15.376Z,4.8
2018-02-24T09:15:18.046Z,4.7
2018-02-24T09:16:20.510Z,4.8
2018-02-24T09:17:23.174Z,4.7
2018-02-24T09:18:25.548Z,4.7
2018-02-24T09:19:27.927Z,4.7
2018-02-24T09:20:30.292Z,4.7
2018-02-24T09:21:32.678Z,4.8
2018-02-24T09:22:35.370Z,4.8
2018-02-24T09:23:37.743Z,4.8
2018-02-24T09:24:40.402Z,4.7
2018-02-24T09:25:42.779Z,4.8
2018-02-24T09:26:45.144Z,4.7
2018-02-24T09:27:47.523Z,4.7
2018-02-24T09:28:49.894Z,4.8
2018-02-24T09:29:52.550Z,4.8
2018-02-24T09:30:54.933Z,4.9
2018-02-24T09:31:57.314Z,4.9
2018-02-24T09:32:59.681Z,4.8
2018-02-24T09:34:02.077Z,4.8
2018-02-24T09:35:04.465Z,4.8
2018-02-24T09:36:06.813Z,4.9
2018-02-24T09:37:09.493Z,4.8
2018-02-24T09:38:12.143Z,4.9
2018-02-24T09:39:14.515Z,4.8
2018-02-24T09:40:17.189Z,4.8
2018-02-24T09:41:19.576Z,4.8
2018-02-24T09:42:21.955Z,4.8
2018-02-24T09:43:24.343Z,4.9
2018-02-24T09:44:27.011Z,4.9
2018-02-24T09:45:29.381Z,4.9
2018-02-24T09:46:31.767Z,4.8
2018-02-24T09:47:34.137Z,4.8
2018-02-24T09:48:36.505Z,4.8
2018-02-24T09:49:38.886Z,5
2018-02-24T09:50:41.258Z,5
2018-02-24T09:51:43.647Z,5
2018-02-24T09:52:46.302Z,4.9
2018-02-24T09:53:48.956Z,4.8
2018-02-24T09:54:51.327Z,4.8
2018-02-24T09:55:53.706Z,4.8
2018-02-24T09:56:56.370Z,4.9
2018-02-24T09:57:58.755Z,4.9
2018-02-24T09:59:01.124Z,4.9
2018-02-24T10:00:03.511Z,4.8
2018-02-24T10:01:05.899Z,4.8
2018-02-24T10:02:08.268Z,4.8
2018-02-24T10:03:10.930Z,4.8
2018-02-24T10:04:13.301Z,4.9
2018-02-24T10:05:15.673Z,4.8
2018-02-24T10:06:18.052Z,4.9
2018-02-24T10:07:20.423Z,4.8
2018-02-24T10:08:22.805Z,4.8
2018-02-24T10:09:25.475Z,4.9
2018-02-24T10:10:28.115Z,4.9
2018-02-24T10:11:30.500Z,4.9
2018-02-24T10:12:32.879Z,4.8
2018-02-24T10:13:35.258Z,4.9
2018-02-24T10:14:37.632Z,4.8
2018-02-24T10:15:40.293Z,4.8
2018-02-24T10:16:42.665Z,4.9
2018-02-24T10:17:45.049Z,4.9
2018-02-24T10:18:47.755Z,4.9
2018-02-24T10:19:50.123Z,4.8
2018-02-24T10:20:52.505Z,4.8
2018-02-24T10:21:54.896Z,4.8
2018-02-24T10:22:57.250Z,4.8
2018-02-24T10:23:59.624Z,4.9
2018-02-24T10:25:01.995Z,4.8
2018-02-24T10:26:04.375Z,4.9
2018-02-24T10:27:06.761Z,4.8
2018-02-24T10:28:09.136Z,4.8
2018-02-24T10:29:11.508Z,4.8
2018-02-24T10:30:13.889Z,4.9
2018-02-24T10:31:16.261Z,4.9
2018-02-24T10:32:18.648Z,4.9
2018-02-24T10:33:21.021Z,4.8
2018-02-24T10:34:23.388Z,4.8
2018-02-24T10:35:26.336Z,4.8
2018-02-24T10:36:28.726Z,5
2018-02-24T10:37:31.677Z,4.9
2018-02-24T10:38:34.064Z,5
2018-02-24T10:39:36.432Z,5
2018-02-24T10:40:38.820Z,4.9
2018-02-24T10:41:41.193Z,4.9
2018-02-24T10:42:43.570Z,4.8
2018-02-24T10:43:45.943Z,4.8
2018-02-24T10:44:48.326Z,4.9
2018-02-24T10:45:50.708Z,4.9
2018-02-24T10:46:53.089Z,4.9
2018-02-24T10:47:55.474Z,4.9
2018-02-24T10:48:57.850Z,4.8
2018-02-24T10:50:00.510Z,4.8
2018-02-24T10:51:02.897Z,4.9
2018-02-24T10:52:05.266Z,4.9
2018-02-24T10:53:07.643Z,4.9
2018-02-24T10:54:10.311Z,4.8
2018-02-24T10:55:12.694Z,4.8
2018-02-24T10:56:15.068Z,4.8
2018-02-24T10:57:17.459Z,4.8
2018-02-24T10:58:20.110Z,4.8
2018-02-24T10:59:22.494Z,4.9
2018-02-24T11:00:24.877Z,4.8
2018-02-24T11:01:27.248Z,4.8
2018-02-24T11:02:29.629Z,4.8
2018-02-24T11:03:32.005Z,4.7
2018-02-24T11:04:34.380Z,4.8
2018-02-24T11:05:36.752Z,4.8
2018-02-24T11:06:39.132Z,4.8
2018-02-24T11:07:42.071Z,4.7
2018-02-24T11:08:44.441Z,4.7
2018-02-24T11:09:47.396Z,4.7
2018-02-24T11:10:49.765Z,4.7
2018-02-24T11:11:52.130Z,4.7
2018-02-24T11:12:54.791Z,4.7
2018-02-24T11:13:57.159Z,4.7
2018-02-24T11:14:59.823Z,4.7
2018-02-24T11:16:02.490Z,4.7
2018-02-24T11:17:04.846Z,4.6
2018-02-24T11:18:07.226Z,4.6
2018-02-24T11:19:09.596Z,4.6
2018-02-24T11:20:12.256Z,4.6
2018-02-24T11:21:14.638Z,4.7
2018-02-24T11:22:17.001Z,4.7
2018-02-24T11:23:19.389Z,4.7
2018-02-24T11:24:21.773Z,4.6
2018-02-24T11:25:24.143Z,4.7
2018-02-24T11:26:26.517Z,4.6
2018-02-24T11:27:28.882Z,4.6
2018-02-24T11:28:31.247Z,4.7
2018-02-24T11:29:33.635Z,4.7
2018-02-24T11:30:35.994Z,4.7
2018-02-24T11:31:38.376Z,4.6
2018-02-24T11:32:40.760Z,4.6
2018-02-24T11:33:43.129Z,4.6
2018-02-24T11:34:45.513Z,4.8
2018-02-24T11:35:47.877Z,4.7
2018-02-24T11:36:50.254Z,4.7
2018-02-24T11:37:52.911Z,4.7
2018-02-24T11:38:55.564Z,4.6
2018-02-24T11:39:58.212Z,4.7
2018-02-24T11:41:00.590Z,4.6
2018-02-24T11:42:03.163Z,4.7
2018-02-24T11:43:05.547Z,4.8
2018-02-24T11:44:07.915Z,4.8
2018-02-24T11:45:10.301Z,4.8
2018-02-24T11:46:12.668Z,4.8
2018-02-24T11:47:15.045Z,4.7
2018-02-24T11:48:17.701Z,4.8
2018-02-24T11:49:20.081Z,4.8
2018-02-24T11:50:22.732Z,4.8
2018-02-24T11:51:25.394Z,4.8
2018-02-24T11:52:27.763Z,4.8
2018-02-24T11:53:30.142Z,4.8
2018-02-24T11:54:32.797Z,4.8
2018-02-24T11:55:35.186Z,4.7
2018-02-24T11:56:37.548Z,4.8
2018-02-24T11:57:39.937Z,4.9
2018-02-24T11:58:42.310Z,4.8
2018-02-24T11:59:44.966Z,4.8
2018-02-24T12:00:47.349Z,4.7
2018-02-24T12:01:49.728Z,4.8
2018-02-24T12:02:52.103Z,4.7
2018-02-24T12:03:54.484Z,4.7
2018-02-24T12:04:56.861Z,4.8
2018-02-24T12:05:59.231Z,4.8
2018-02-24T12:07:01.616Z,4.8
2018-02-24T12:08:03.987Z,4.7
2018-02-24T12:09:06.644Z,4.7
2018-02-24T12:10:09.018Z,4.7
2018-02-24T12:11:11.682Z,4.8
2018-02-24T12:12:14.061Z,4.7
2018-02-24T12:13:16.438Z,4.8
2018-02-24T12:14:18.816Z,4.7
2018-02-24T12:15:21.475Z,4.7
2018-02-24T12:16:24.122Z,4.7
2018-02-24T12:17:26.503Z,4.6
2018-02-24T12:18:28.871Z,4.6
2018-02-24T12:19:31.252Z,4.7
2018-02-24T12:20:33.915Z,4.8
2018-02-24T12:21:36.286Z,4.7
2018-02-24T12:22:38.651Z,4.7
2018-02-24T12:23:41.038Z,4.7
2018-02-24T12:24:43.409Z,4.7
2018-02-24T12:25:45.793Z,4.7
2018-02-24T12:26:48.169Z,4.8
2018-02-24T12:27:51.108Z,4.7
2018-02-24T12:28:53.484Z,4.8
2018-02-24T12:29:55.876Z,4.8
2018-02-24T12:30:58.240Z,4.7
2018-02-24T12:32:00.620Z,4.7
2018-02-24T12:33:02.996Z,4.7
2018-02-24T12:34:05.371Z,4.8
2018-02-24T12:35:07.739Z,4.8
2018-02-24T12:36:10.122Z,4.8
2018-02-24T12:37:12.492Z,4.7
2018-02-24T12:38:15.157Z,4.7
2018-02-24T12:39:17.529Z,4.7
2018-02-24T12:40:19.908Z,4.7
2018-02-24T12:41:22.559Z,4.7
2018-02-24T12:42:24.930Z,4.8
2018-02-24T12:43:27.308Z,4.8
2018-02-24T12:44:29.688Z,4.7
2018-02-24T12:45:32.070Z,4.7
2018-02-24T12:46:34.467Z,4.6
2018-02-24T12:47:36.809Z,4.8
2018-02-24T12:48:39.192Z,4.8
2018-02-24T12:49:41.901Z,4.7
2018-02-24T12:50:44.997Z,4.8
2018-02-24T12:51:47.378Z,4.8
2018-02-24T12:52:49.755Z,4.8
2018-02-24T12:53:52.409Z,4.8
2018-02-24T12:54:54.805Z,4.7
2018-02-24T12:55:57.171Z,4.8
2018-02-24T12:56:59.545Z,4.8
2018-02-24T12:58:02.207Z,4.8
2018-02-24T12:59:04.579Z,4.9
2018-02-24T13:00:06.950Z,4.8
2018-02-24T13:01:09.331Z,4.8
2018-02-24T13:02:11.699Z,4.8
2018-02-24T13:03:14.081Z,4.9
2018-02-24T13:04:16.445Z,4.9
2018-02-24T13:05:18.880Z,4.9
2018-02-24T13:06:21.202Z,4.9
2018-02-24T13:07:23.584Z,4.9
2018-02-24T13:08:25.961Z,4.8
2018-02-24T13:09:28.617Z,4.9
2018-02-24T13:10:30.992Z,5
2018-02-24T13:11:33.372Z,4.9
2018-02-24T13:12:35.747Z,4.9
2018-02-24T13:13:38.125Z,5
2018-02-24T13:14:40.499Z,4.9
2018-02-24T13:15:42.890Z,5.1
2018-02-24T13:16:45.266Z,5.1
2018-02-24T13:17:47.941Z,5
2018-02-24T13:18:50.324Z,5
2018-02-24T13:19:52.693Z,4.9
2018-02-24T13:20:55.082Z,4.9
2018-02-24T13:21:57.467Z,5
2018-02-24T13:22:59.831Z,5
2018-02-24T13:24:02.499Z,4.9
2018-02-24T13:25:04.885Z,5
2018-02-24T13:26:07.543Z,5
2018-02-24T13:27:09.929Z,5
2018-02-24T13:28:12.582Z,5
2018-02-24T13:29:14.957Z,5.1
2018-02-24T13:30:17.354Z,5.1
2018-02-24T13:31:20.015Z,5
2018-02-24T13:32:22.447Z,5.1
2018-02-24T13:33:24.777Z,5
2018-02-24T13:34:27.448Z,5
2018-02-24T13:35:29.820Z,5
2018-02-24T13:36:32.213Z,5
2018-02-24T13:37:34.880Z,5.1
2018-02-24T13:38:37.261Z,5
2018-02-24T13:39:39.927Z,5.1
2018-02-24T13:40:42.301Z,5
2018-02-24T13:41:44.679Z,5.1
2018-02-24T13:42:47.062Z,4.9
2018-02-24T13:43:49.434Z,4.9
2018-02-24T13:44:51.822Z,5.1
2018-02-24T13:45:54.480Z,4.9
2018-02-24T13:46:57.151Z,4.9
2018-02-24T13:47:59.524Z,4.9
2018-02-24T13:49:01.908Z,4.9
2018-02-24T13:50:04.290Z,4.9
2018-02-24T13:51:06.675Z,5
2018-02-24T13:52:09.058Z,4.9
2018-02-24T13:53:11.445Z,4.9
2018-02-24T13:54:13.812Z,4.9
2018-02-24T13:55:16.194Z,4.9
2018-02-24T13:56:18.840Z,5
2018-02-24T13:57:21.226Z,4.9
2018-02-24T13:58:23.596Z,4.9
2018-02-24T13:59:25.980Z,5
2018-02-24T14:00:28.353Z,4.9
2018-02-24T14:01:30.737Z,4.9
2018-02-24T14:02:33.394Z,4.9
2018-02-24T14:03:35.771Z,5
2018-02-24T14:04:38.154Z,5
2018-02-24T14:05:40.531Z,5
2018-02-24T14:06:42.902Z,4.9
2018-02-24T14:07:45.276Z,4.9
2018-02-24T14:08:47.666Z,4.9
2018-02-24T14:09:50.032Z,5
2018-02-24T14:10:52.426Z,4.9
2018-02-24T14:11:54.880Z,4.9
2018-02-24T14:12:57.200Z,4.9
2018-02-24T14:13:59.588Z,4.9
2018-02-24T14:15:01.981Z,4.8
2018-02-24T14:16:05.155Z,4.9
2018-02-24T14:17:07.540Z,4.9
2018-02-24T14:18:10.202Z,4.9
2018-02-24T14:19:12.872Z,5
2018-02-24T14:20:15.529Z,4.9
2018-02-24T14:21:17.920Z,4.8
2018-02-24T14:22:20.568Z,4.8